sensor_id;sensor_type;location;lat;lon;timestamp;P1;durP1;ratioP1;P2;durP2;ratioP2
47856;SDS011;33618;49.972;8.242;2023-05-20T00:00:05;4.90;;;2.20;;
47856;SDS011;33618;49.972;8.242;2023-05-20T00:02:32;3.95;;;2.10;;
47856;SDS011;33618;49.972;8.242;2023-05-20T00:05:00;4.22;;;2.10;;
47856;SDS011;33618;49.972;8.242;2023-05-20T00:07:27;4.07;;;2.08;;
47856;SDS011;33618;49.972;8.242;2023-05-20T00:09:54;2.30;;;2.10;;
47856;SDS011;33618;49.972;8.242;2023-05-20T00:12:21;3.75;;;1.98;;
47856;SDS011;33618;49.972;8.242;2023-05-20T00:14:47;4.60;;;2.67;;
47856;SDS011;33618;49.972;8.242;2023-05-20T00:17:14;4.50;;;2.03;;
47856;SDS011;33618;49.972;8.242;2023-05-20T00:19:41;2.63;;;2.00;;
47856;SDS011;33618;49.972;8.242;2023-05-20T00:22:08;2.95;;;2.20;;
47856;SDS011;33618;49.972;8.242;2023-05-20T00:24:35;3.47;;;2.05;;
47856;SDS011;33618;49.972;8.242;2023-05-20T00:27:02;2.78;;;2.05;;
47856;SDS011;33618;49.972;8.242;2023-05-20T00:29:28;3.55;;;2.10;;
47856;SDS011;33618;49.972;8.242;2023-05-20T00:31:56;2.75;;;2.25;;
47856;SDS011;33618;49.972;8.242;2023-05-20T00:34:23;6.40;;;2.22;;
47856;SDS011;33618;49.972;8.242;2023-05-20T00:36:50;2.95;;;2.00;;
47856;SDS011;33618;49.972;8.242;2023-05-20T00:39:17;4.47;;;2.08;;
47856;SDS011;33618;49.972;8.242;2023-05-20T00:41:44;3.47;;;2.35;;
47856;SDS011;33618;49.972;8.242;2023-05-20T00:44:11;2.83;;;2.10;;
47856;SDS011;33618;49.972;8.242;2023-05-20T00:46:38;3.65;;;2.10;;
47856;SDS011;33618;49.972;8.242;2023-05-20T00:49:05;3.60;;;2.20;;
47856;SDS011;33618;49.972;8.242;2023-05-20T00:51:33;2.80;;;2.10;;
47856;SDS011;33618;49.972;8.242;2023-05-20T00:54:00;4.47;;;2.00;;
47856;SDS011;33618;49.972;8.242;2023-05-20T00:56:27;2.60;;;1.90;;
47856;SDS011;33618;49.972;8.242;2023-05-20T00:58:55;3.83;;;1.98;;
47856;SDS011;33618;49.972;8.242;2023-05-20T01:01:22;3.75;;;2.60;;
47856;SDS011;33618;49.972;8.242;2023-05-20T01:03:50;4.53;;;2.17;;
47856;SDS011;33618;49.972;8.242;2023-05-20T01:06:17;3.28;;;2.33;;
47856;SDS011;33618;49.972;8.242;2023-05-20T01:08:44;2.53;;;2.25;;
47856;SDS011;33618;49.972;8.242;2023-05-20T01:14:14;6.57;;;2.30;;
47856;SDS011;33618;49.972;8.242;2023-05-20T01:16:43;2.40;;;2.20;;
47856;SDS011;33618;49.972;8.242;2023-05-20T01:19:46;3.97;;;2.17;;
47856;SDS011;33618;49.972;8.242;2023-05-20T01:22:10;2.53;;;2.33;;
47856;SDS011;33618;49.972;8.242;2023-05-20T01:24:41;4.50;;;2.40;;
47856;SDS011;33618;49.972;8.242;2023-05-20T01:27:10;2.35;;;2.15;;
47856;SDS011;33618;49.972;8.242;2023-05-20T01:29:39;3.78;;;2.20;;
47856;SDS011;33618;49.972;8.242;2023-05-20T01:32:10;4.03;;;2.25;;
47856;SDS011;33618;49.972;8.242;2023-05-20T01:34:49;2.42;;;2.22;;
47856;SDS011;33618;49.972;8.242;2023-05-20T01:37:20;3.28;;;2.55;;
47856;SDS011;33618;49.972;8.242;2023-05-20T01:39:48;2.60;;;2.30;;
47856;SDS011;33618;49.972;8.242;2023-05-20T01:42:16;3.20;;;2.50;;
47856;SDS011;33618;49.972;8.242;2023-05-20T01:44:44;3.70;;;2.80;;
47856;SDS011;33618;49.972;8.242;2023-05-20T01:47:12;2.75;;;2.28;;
47856;SDS011;33618;49.972;8.242;2023-05-20T01:49:38;3.00;;;2.20;;
47856;SDS011;33618;49.972;8.242;2023-05-20T01:52:06;3.00;;;2.42;;
47856;SDS011;33618;49.972;8.242;2023-05-20T01:54:33;4.65;;;2.33;;
47856;SDS011;33618;49.972;8.242;2023-05-20T01:57:00;3.20;;;2.10;;
47856;SDS011;33618;49.972;8.242;2023-05-20T01:59:28;3.75;;;2.40;;
47856;SDS011;33618;49.972;8.242;2023-05-20T02:01:55;2.47;;;2.28;;
47856;SDS011;33618;49.972;8.242;2023-05-20T02:04:22;2.85;;;2.50;;
47856;SDS011;33618;49.972;8.242;2023-05-20T02:06:49;4.43;;;2.80;;
47856;SDS011;33618;49.972;8.242;2023-05-20T02:09:17;4.05;;;2.35;;
47856;SDS011;33618;49.972;8.242;2023-05-20T02:11:44;4.22;;;2.88;;
47856;SDS011;33618;49.972;8.242;2023-05-20T02:14:11;2.70;;;2.42;;
47856;SDS011;33618;49.972;8.242;2023-05-20T02:16:38;2.40;;;2.20;;
47856;SDS011;33618;49.972;8.242;2023-05-20T02:19:05;3.42;;;2.25;;
47856;SDS011;33618;49.972;8.242;2023-05-20T02:21:38;3.10;;;2.55;;
47856;SDS011;33618;49.972;8.242;2023-05-20T02:24:06;2.63;;;2.40;;
47856;SDS011;33618;49.972;8.242;2023-05-20T02:26:33;4.18;;;2.50;;
47856;SDS011;33618;49.972;8.242;2023-05-20T02:29:00;2.65;;;2.45;;
47856;SDS011;33618;49.972;8.242;2023-05-20T02:31:27;3.30;;;2.83;;
47856;SDS011;33618;49.972;8.242;2023-05-20T02:33:54;4.43;;;2.58;;
47856;SDS011;33618;49.972;8.242;2023-05-20T02:36:21;2.30;;;2.20;;
47856;SDS011;33618;49.972;8.242;2023-05-20T02:38:48;4.20;;;2.72;;
47856;SDS011;33618;49.972;8.242;2023-05-20T02:41:15;3.13;;;2.50;;
47856;SDS011;33618;49.972;8.242;2023-05-20T02:43:42;3.33;;;2.40;;
47856;SDS011;33618;49.972;8.242;2023-05-20T02:46:10;3.30;;;2.75;;
47856;SDS011;33618;49.972;8.242;2023-05-20T02:48:37;4.50;;;2.60;;
47856;SDS011;33618;49.972;8.242;2023-05-20T02:51:04;2.88;;;2.60;;
47856;SDS011;33618;49.972;8.242;2023-05-20T02:53:31;2.92;;;2.67;;
47856;SDS011;33618;49.972;8.242;2023-05-20T02:55:58;3.45;;;2.55;;
47856;SDS011;33618;49.972;8.242;2023-05-20T02:58:25;4.55;;;2.50;;
47856;SDS011;33618;49.972;8.242;2023-05-20T03:00:52;2.80;;;2.60;;
47856;SDS011;33618;49.972;8.242;2023-05-20T03:03:19;3.58;;;2.53;;
47856;SDS011;33618;49.972;8.242;2023-05-20T03:05:46;3.35;;;2.65;;
47856;SDS011;33618;49.972;8.242;2023-05-20T03:08:13;2.70;;;2.50;;
47856;SDS011;33618;49.972;8.242;2023-05-20T03:10:40;3.30;;;2.80;;
47856;SDS011;33618;49.972;8.242;2023-05-20T03:13:07;4.50;;;2.60;;
47856;SDS011;33618;49.972;8.242;2023-05-20T03:15:36;3.40;;;2.60;;
47856;SDS011;33618;49.972;8.242;2023-05-20T03:18:04;2.80;;;2.38;;
47856;SDS011;33618;49.972;8.242;2023-05-20T03:20:33;2.70;;;2.50;;
47856;SDS011;33618;49.972;8.242;2023-05-20T03:23:03;3.00;;;2.67;;
47856;SDS011;33618;49.972;8.242;2023-05-20T03:25:31;4.63;;;2.70;;
47856;SDS011;33618;49.972;8.242;2023-05-20T03:27:58;15.40;;;2.80;;
47856;SDS011;33618;49.972;8.242;2023-05-20T03:30:25;4.10;;;2.40;;
47856;SDS011;33618;49.972;8.242;2023-05-20T03:32:53;2.85;;;2.65;;
47856;SDS011;33618;49.972;8.242;2023-05-20T03:35:23;4.70;;;2.53;;
47856;SDS011;33618;49.972;8.242;2023-05-20T03:37:50;2.90;;;2.45;;
47856;SDS011;33618;49.972;8.242;2023-05-20T03:40:18;3.35;;;2.50;;
47856;SDS011;33618;49.972;8.242;2023-05-20T03:42:46;3.35;;;2.50;;
47856;SDS011;33618;49.972;8.242;2023-05-20T03:45:13;5.40;;;2.97;;
47856;SDS011;33618;49.972;8.242;2023-05-20T03:47:40;7.50;;;2.67;;
47856;SDS011;33618;49.972;8.242;2023-05-20T03:50:07;8.35;;;2.40;;
47856;SDS011;33618;49.972;8.242;2023-05-20T03:52:34;3.20;;;2.30;;
47856;SDS011;33618;49.972;8.242;2023-05-20T03:55:01;3.28;;;2.67;;
47856;SDS011;33618;49.972;8.242;2023-05-20T03:57:29;2.83;;;2.60;;
47856;SDS011;33618;49.972;8.242;2023-05-20T03:59:57;2.67;;;2.22;;
47856;SDS011;33618;49.972;8.242;2023-05-20T04:02:24;5.00;;;2.60;;
47856;SDS011;33618;49.972;8.242;2023-05-20T04:04:51;4.45;;;2.90;;
47856;SDS011;33618;49.972;8.242;2023-05-20T04:07:18;2.60;;;2.40;;
47856;SDS011;33618;49.972;8.242;2023-05-20T04:09:45;4.32;;;2.65;;
47856;SDS011;33618;49.972;8.242;2023-05-20T04:12:12;4.25;;;2.60;;
47856;SDS011;33618;49.972;8.242;2023-05-20T04:14:39;3.00;;;2.70;;
47856;SDS011;33618;49.972;8.242;2023-05-20T04:17:07;2.95;;;2.63;;
47856;SDS011;33618;49.972;8.242;2023-05-20T04:19:34;4.50;;;2.65;;
47856;SDS011;33618;49.972;8.242;2023-05-20T04:22:03;4.38;;;2.47;;
47856;SDS011;33618;49.972;8.242;2023-05-20T04:24:30;2.80;;;2.60;;
47856;SDS011;33618;49.972;8.242;2023-05-20T04:26:57;3.63;;;2.78;;
47856;SDS011;33618;49.972;8.242;2023-05-20T04:29:24;4.90;;;2.80;;
47856;SDS011;33618;49.972;8.242;2023-05-20T04:31:51;2.75;;;2.55;;
47856;SDS011;33618;49.972;8.242;2023-05-20T04:34:19;3.33;;;2.58;;
47856;SDS011;33618;49.972;8.242;2023-05-20T04:36:52;3.00;;;2.70;;
47856;SDS011;33618;49.972;8.242;2023-05-20T04:39:19;3.05;;;2.53;;
47856;SDS011;33618;49.972;8.242;2023-05-20T04:41:46;3.33;;;2.47;;
47856;SDS011;33618;49.972;8.242;2023-05-20T04:44:14;2.70;;;2.50;;
47856;SDS011;33618;49.972;8.242;2023-05-20T04:46:41;2.85;;;2.50;;
47856;SDS011;33618;49.972;8.242;2023-05-20T04:49:08;3.47;;;2.47;;
47856;SDS011;33618;49.972;8.242;2023-05-20T04:51:35;2.92;;;2.70;;
47856;SDS011;33618;49.972;8.242;2023-05-20T04:54:02;5.38;;;2.67;;
47856;SDS011;33618;49.972;8.242;2023-05-20T04:56:28;3.10;;;2.75;;
47856;SDS011;33618;49.972;8.242;2023-05-20T04:58:55;2.72;;;2.53;;
47856;SDS011;33618;49.972;8.242;2023-05-20T05:01:23;3.75;;;2.92;;
47856;SDS011;33618;49.972;8.242;2023-05-20T05:03:50;2.83;;;2.63;;
47856;SDS011;33618;49.972;8.242;2023-05-20T05:06:18;5.18;;;2.80;;
47856;SDS011;33618;49.972;8.242;2023-05-20T05:08:44;3.83;;;2.72;;
47856;SDS011;33618;49.972;8.242;2023-05-20T05:11:11;3.00;;;2.80;;
47856;SDS011;33618;49.972;8.242;2023-05-20T05:13:38;3.90;;;2.95;;
47856;SDS011;33618;49.972;8.242;2023-05-20T05:16:05;4.93;;;2.70;;
47856;SDS011;33618;49.972;8.242;2023-05-20T05:18:32;3.55;;;2.80;;
47856;SDS011;33618;49.972;8.242;2023-05-20T05:21:02;3.45;;;2.90;;
47856;SDS011;33618;49.972;8.242;2023-05-20T05:23:31;4.45;;;2.78;;
47856;SDS011;33618;49.972;8.242;2023-05-20T05:25:58;5.65;;;2.67;;
47856;SDS011;33618;49.972;8.242;2023-05-20T05:28:25;6.90;;;3.05;;
47856;SDS011;33618;49.972;8.242;2023-05-20T05:30:55;5.97;;;2.80;;
47856;SDS011;33618;49.972;8.242;2023-05-20T05:33:22;3.97;;;3.00;;
47856;SDS011;33618;49.972;8.242;2023-05-20T05:35:49;4.50;;;3.30;;
47856;SDS011;33618;49.972;8.242;2023-05-20T05:38:16;3.83;;;3.25;;
47856;SDS011;33618;49.972;8.242;2023-05-20T05:40:43;2.90;;;2.65;;
47856;SDS011;33618;49.972;8.242;2023-05-20T05:43:10;4.15;;;3.17;;
47856;SDS011;33618;49.972;8.242;2023-05-20T05:45:37;4.25;;;3.03;;
47856;SDS011;33618;49.972;8.242;2023-05-20T05:48:04;3.10;;;2.80;;
47856;SDS011;33618;49.972;8.242;2023-05-20T05:50:31;3.30;;;3.00;;
47856;SDS011;33618;49.972;8.242;2023-05-20T05:52:58;3.33;;;3.03;;
47856;SDS011;33618;49.972;8.242;2023-05-20T05:55:25;4.57;;;2.95;;
47856;SDS011;33618;49.972;8.242;2023-05-20T05:57:52;3.28;;;3.08;;
47856;SDS011;33618;49.972;8.242;2023-05-20T06:00:19;3.50;;;3.00;;
47856;SDS011;33618;49.972;8.242;2023-05-20T06:02:46;6.38;;;3.38;;
47856;SDS011;33618;49.972;8.242;2023-05-20T06:05:13;7.38;;;3.30;;
47856;SDS011;33618;49.972;8.242;2023-05-20T06:07:40;4.20;;;3.20;;
47856;SDS011;33618;49.972;8.242;2023-05-20T06:10:07;3.38;;;3.03;;
47856;SDS011;33618;49.972;8.242;2023-05-20T06:12:34;5.28;;;3.55;;
47856;SDS011;33618;49.972;8.242;2023-05-20T06:15:01;4.60;;;3.97;;
47856;SDS011;33618;49.972;8.242;2023-05-20T06:17:28;3.97;;;3.33;;
47856;SDS011;33618;49.972;8.242;2023-05-20T06:19:55;4.97;;;3.22;;
47856;SDS011;33618;49.972;8.242;2023-05-20T06:22:22;5.05;;;3.70;;
47856;SDS011;33618;49.972;8.242;2023-05-20T06:24:50;4.10;;;3.47;;
47856;SDS011;33618;49.972;8.242;2023-05-20T06:27:17;4.47;;;3.60;;
47856;SDS011;33618;49.972;8.242;2023-05-20T06:29:44;5.50;;;3.70;;
47856;SDS011;33618;49.972;8.242;2023-05-20T06:32:11;5.75;;;3.50;;
47856;SDS011;33618;49.972;8.242;2023-05-20T06:34:38;7.18;;;3.63;;
47856;SDS011;33618;49.972;8.242;2023-05-20T06:37:05;4.22;;;3.75;;
47856;SDS011;33618;49.972;8.242;2023-05-20T06:39:31;3.75;;;3.45;;
47856;SDS011;33618;49.972;8.242;2023-05-20T06:41:58;5.75;;;3.85;;
47856;SDS011;33618;49.972;8.242;2023-05-20T06:44:25;3.97;;;3.40;;
47856;SDS011;33618;49.972;8.242;2023-05-20T06:46:52;5.07;;;3.60;;
47856;SDS011;33618;49.972;8.242;2023-05-20T06:49:19;4.00;;;3.60;;
47856;SDS011;33618;49.972;8.242;2023-05-20T06:51:47;4.03;;;3.63;;
47856;SDS011;33618;49.972;8.242;2023-05-20T06:54:13;4.05;;;3.65;;
47856;SDS011;33618;49.972;8.242;2023-05-20T06:56:42;5.53;;;3.88;;
47856;SDS011;33618;49.972;8.242;2023-05-20T06:59:09;3.80;;;3.50;;
47856;SDS011;33618;49.972;8.242;2023-05-20T07:01:36;4.10;;;3.70;;
47856;SDS011;33618;49.972;8.242;2023-05-20T07:04:03;4.10;;;3.80;;
47856;SDS011;33618;49.972;8.242;2023-05-20T07:06:30;5.60;;;3.85;;
47856;SDS011;33618;49.972;8.242;2023-05-20T07:08:57;4.00;;;3.65;;
47856;SDS011;33618;49.972;8.242;2023-05-20T07:11:24;4.30;;;3.90;;
47856;SDS011;33618;49.972;8.242;2023-05-20T07:13:51;5.50;;;3.78;;
47856;SDS011;33618;49.972;8.242;2023-05-20T07:16:18;4.43;;;4.03;;
47856;SDS011;33618;49.972;8.242;2023-05-20T07:18:45;4.97;;;4.05;;
47856;SDS011;33618;49.972;8.242;2023-05-20T07:21:12;4.82;;;3.80;;
47856;SDS011;33618;49.972;8.242;2023-05-20T07:23:39;4.03;;;3.72;;
47856;SDS011;33618;49.972;8.242;2023-05-20T07:26:06;4.60;;;4.20;;
47856;SDS011;33618;49.972;8.242;2023-05-20T07:28:33;4.05;;;3.65;;
47856;SDS011;33618;49.972;8.242;2023-05-20T07:31:00;4.90;;;4.38;;
47856;SDS011;33618;49.972;8.242;2023-05-20T07:33:27;4.32;;;3.90;;
47856;SDS011;33618;49.972;8.242;2023-05-20T07:35:55;4.72;;;4.32;;
47856;SDS011;33618;49.972;8.242;2023-05-20T07:38:22;4.85;;;4.45;;
47856;SDS011;33618;49.972;8.242;2023-05-20T07:40:48;4.88;;;4.47;;
47856;SDS011;33618;49.972;8.242;2023-05-20T07:43:15;7.20;;;4.47;;
47856;SDS011;33618;49.972;8.242;2023-05-20T07:45:42;6.35;;;4.03;;
47856;SDS011;33618;49.972;8.242;2023-05-20T07:48:09;6.15;;;4.10;;
47856;SDS011;33618;49.972;8.242;2023-05-20T07:50:38;6.82;;;4.03;;
47856;SDS011;33618;49.972;8.242;2023-05-20T07:53:05;4.32;;;3.90;;
47856;SDS011;33618;49.972;8.242;2023-05-20T07:55:33;5.68;;;4.40;;
47856;SDS011;33618;49.972;8.242;2023-05-20T07:58:02;5.78;;;4.30;;
47856;SDS011;33618;49.972;8.242;2023-05-20T08:00:29;5.03;;;4.57;;
47856;SDS011;33618;49.972;8.242;2023-05-20T08:02:56;5.35;;;4.55;;
47856;SDS011;33618;49.972;8.242;2023-05-20T08:05:23;6.00;;;4.55;;
47856;SDS011;33618;49.972;8.242;2023-05-20T08:07:50;6.40;;;4.70;;
47856;SDS011;33618;49.972;8.242;2023-05-20T08:10:17;4.75;;;4.20;;
47856;SDS011;33618;49.972;8.242;2023-05-20T08:12:45;7.65;;;4.72;;
47856;SDS011;33618;49.972;8.242;2023-05-20T08:15:12;5.07;;;4.57;;
47856;SDS011;33618;49.972;8.242;2023-05-20T08:17:39;4.78;;;4.38;;
47856;SDS011;33618;49.972;8.242;2023-05-20T08:20:06;8.70;;;4.70;;
47856;SDS011;33618;49.972;8.242;2023-05-20T08:22:37;5.15;;;4.68;;
47856;SDS011;33618;49.972;8.242;2023-05-20T08:25:06;7.07;;;4.57;;
47856;SDS011;33618;49.972;8.242;2023-05-20T08:27:34;4.97;;;4.47;;
47856;SDS011;33618;49.972;8.242;2023-05-20T08:30:03;4.97;;;4.47;;
47856;SDS011;33618;49.972;8.242;2023-05-20T08:32:30;5.65;;;5.07;;
47856;SDS011;33618;49.972;8.242;2023-05-20T08:34:57;5.32;;;4.82;;
47856;SDS011;33618;49.972;8.242;2023-05-20T08:37:27;5.18;;;4.55;;
47856;SDS011;33618;49.972;8.242;2023-05-20T08:39:55;5.32;;;4.82;;
47856;SDS011;33618;49.972;8.242;2023-05-20T08:42:22;5.80;;;5.30;;
47856;SDS011;33618;49.972;8.242;2023-05-20T08:44:50;7.78;;;5.30;;
47856;SDS011;33618;49.972;8.242;2023-05-20T08:47:21;6.85;;;5.20;;
47856;SDS011;33618;49.972;8.242;2023-05-20T08:49:48;5.30;;;4.82;;
47856;SDS011;33618;49.972;8.242;2023-05-20T08:52:15;5.63;;;5.13;;
47856;SDS011;33618;49.972;8.242;2023-05-20T08:54:48;7.50;;;6.10;;
47856;SDS011;33618;49.972;8.242;2023-05-20T08:57:15;11.57;;;5.57;;
47856;SDS011;33618;49.972;8.242;2023-05-20T08:59:44;120.97;;;35.35;;
47856;SDS011;33618;49.972;8.242;2023-05-20T09:02:12;117.93;;;31.60;;
47856;SDS011;33618;49.972;8.242;2023-05-20T09:04:39;29.58;;;10.60;;
47856;SDS011;33618;49.972;8.242;2023-05-20T09:07:06;12.63;;;6.88;;
47856;SDS011;33618;49.972;8.242;2023-05-20T09:09:33;13.93;;;6.45;;
47856;SDS011;33618;49.972;8.242;2023-05-20T09:12:01;6.45;;;5.72;;
47856;SDS011;33618;49.972;8.242;2023-05-20T09:14:32;7.60;;;5.40;;
47856;SDS011;33618;49.972;8.242;2023-05-20T09:16:58;5.82;;;5.10;;
47856;SDS011;33618;49.972;8.242;2023-05-20T09:19:26;6.00;;;5.40;;
47856;SDS011;33618;49.972;8.242;2023-05-20T09:21:53;7.63;;;5.65;;
47856;SDS011;33618;49.972;8.242;2023-05-20T09:24:23;5.70;;;5.20;;
47856;SDS011;33618;49.972;8.242;2023-05-20T09:26:52;7.00;;;5.20;;
47856;SDS011;33618;49.972;8.242;2023-05-20T09:29:18;7.05;;;5.88;;
47856;SDS011;33618;49.972;8.242;2023-05-20T09:31:47;8.15;;;5.95;;
47856;SDS011;33618;49.972;8.242;2023-05-20T09:34:15;11.30;;;5.90;;
47856;SDS011;33618;49.972;8.242;2023-05-20T09:36:43;8.80;;;5.72;;
47856;SDS011;33618;49.972;8.242;2023-05-20T09:39:14;5.53;;;5.13;;
47856;SDS011;33618;49.972;8.242;2023-05-20T09:41:48;6.00;;;5.40;;
47856;SDS011;33618;49.972;8.242;2023-05-20T09:44:29;7.85;;;5.38;;
47856;SDS011;33618;49.972;8.242;2023-05-20T09:46:56;5.80;;;5.30;;
47856;SDS011;33618;49.972;8.242;2023-05-20T09:49:24;5.53;;;5.03;;
47856;SDS011;33618;49.972;8.242;2023-05-20T09:51:53;5.32;;;4.82;;
47856;SDS011;33618;49.972;8.242;2023-05-20T09:54:23;5.72;;;5.22;;
47856;SDS011;33618;49.972;8.242;2023-05-20T09:56:52;6.32;;;5.50;;
47856;SDS011;33618;49.972;8.242;2023-05-20T09:59:20;6.43;;;5.82;;
47856;SDS011;33618;49.972;8.242;2023-05-20T10:01:47;6.13;;;5.57;;
47856;SDS011;33618;49.972;8.242;2023-05-20T10:04:15;6.15;;;5.50;;
47856;SDS011;33618;49.972;8.242;2023-05-20T10:20:17;5.75;;;5.18;;
47856;SDS011;33618;49.972;8.242;2023-05-20T10:22:53;5.50;;;5.10;;
47856;SDS011;33618;49.972;8.242;2023-05-20T10:25:23;6.07;;;5.50;;
47856;SDS011;33618;49.972;8.242;2023-05-20T10:28:02;8.88;;;5.50;;
47856;SDS011;33618;49.972;8.242;2023-05-20T10:30:33;6.03;;;5.40;;
47856;SDS011;33618;49.972;8.242;2023-05-20T10:33:02;7.57;;;5.40;;
47856;SDS011;33618;49.972;8.242;2023-05-20T10:35:31;6.82;;;5.57;;
47856;SDS011;33618;49.972;8.242;2023-05-20T10:38:09;6.28;;;5.60;;
47856;SDS011;33618;49.972;8.242;2023-05-20T10:40:37;6.68;;;5.70;;
47856;SDS011;33618;49.972;8.242;2023-05-20T10:43:10;6.72;;;6.13;;
47856;SDS011;33618;49.972;8.242;2023-05-20T10:48:19;6.03;;;5.45;;
47856;SDS011;33618;49.972;8.242;2023-05-20T10:50:47;6.80;;;5.82;;
47856;SDS011;33618;49.972;8.242;2023-05-20T10:53:15;5.93;;;5.43;;
47856;SDS011;33618;49.972;8.242;2023-05-20T10:55:54;6.60;;;5.97;;
47856;SDS011;33618;49.972;8.242;2023-05-20T10:58:22;6.38;;;5.50;;
47856;SDS011;33618;49.972;8.242;2023-05-20T11:00:52;5.97;;;5.43;;
47856;SDS011;33618;49.972;8.242;2023-05-20T11:03:21;7.30;;;5.68;;
47856;SDS011;33618;49.972;8.242;2023-05-20T11:05:49;6.22;;;5.35;;
47856;SDS011;33618;49.972;8.242;2023-05-20T11:08:17;5.82;;;5.32;;
47856;SDS011;33618;49.972;8.242;2023-05-20T11:10:54;5.63;;;5.13;;
47856;SDS011;33618;49.972;8.242;2023-05-20T11:13:22;6.35;;;5.82;;
47856;SDS011;33618;49.972;8.242;2023-05-20T11:15:51;5.63;;;5.22;;
47856;SDS011;33618;49.972;8.242;2023-05-20T11:18:19;6.45;;;5.40;;
47856;SDS011;33618;49.972;8.242;2023-05-20T11:20:46;6.15;;;5.00;;
47856;SDS011;33618;49.972;8.242;2023-05-20T11:23:14;16.42;;;5.40;;
47856;SDS011;33618;49.972;8.242;2023-05-20T11:25:41;7.07;;;5.80;;
47856;SDS011;33618;49.972;8.242;2023-05-20T11:28:11;6.65;;;5.43;;
47856;SDS011;33618;49.972;8.242;2023-05-20T11:30:41;5.53;;;5.03;;
47856;SDS011;33618;49.972;8.242;2023-05-20T11:33:12;5.50;;;4.97;;
47856;SDS011;33618;49.972;8.242;2023-05-20T11:35:44;5.68;;;5.00;;
47856;SDS011;33618;49.972;8.242;2023-05-20T11:38:18;5.20;;;4.80;;
47856;SDS011;33618;49.972;8.242;2023-05-20T11:40:50;4.65;;;4.35;;
47856;SDS011;33618;49.972;8.242;2023-05-20T11:43:20;5.47;;;4.97;;
47856;SDS011;33618;49.972;8.242;2023-05-20T11:45:52;5.53;;;5.03;;
47856;SDS011;33618;49.972;8.242;2023-05-20T11:48:22;6.00;;;5.25;;
47856;SDS011;33618;49.972;8.242;2023-05-20T11:50:50;5.65;;;5.00;;
47856;SDS011;33618;49.972;8.242;2023-05-20T11:53:20;5.50;;;5.07;;
47856;SDS011;33618;49.972;8.242;2023-05-20T11:55:52;5.50;;;5.00;;
47856;SDS011;33618;49.972;8.242;2023-05-20T11:58:32;5.68;;;5.15;;
47856;SDS011;33618;49.972;8.242;2023-05-20T12:03:45;5.75;;;4.85;;
47856;SDS011;33618;49.972;8.242;2023-05-20T12:06:15;5.28;;;4.88;;
47856;SDS011;33618;49.972;8.242;2023-05-20T12:08:43;5.10;;;4.68;;
47856;SDS011;33618;49.972;8.242;2023-05-20T12:11:10;5.68;;;4.95;;
47856;SDS011;33618;49.972;8.242;2023-05-20T12:13:38;5.18;;;4.78;;
47856;SDS011;33618;49.972;8.242;2023-05-20T12:16:05;7.80;;;5.00;;
47856;SDS011;33618;49.972;8.242;2023-05-20T12:18:32;5.22;;;4.65;;
47856;SDS011;33618;49.972;8.242;2023-05-20T12:20:59;5.40;;;4.85;;
47856;SDS011;33618;49.972;8.242;2023-05-20T12:23:27;5.32;;;4.80;;
47856;SDS011;33618;49.972;8.242;2023-05-20T12:25:56;5.60;;;5.00;;
47856;SDS011;33618;49.972;8.242;2023-05-20T12:28:23;5.07;;;4.57;;
47856;SDS011;33618;49.972;8.242;2023-05-20T12:30:54;5.55;;;5.00;;
47856;SDS011;33618;49.972;8.242;2023-05-20T12:33:21;6.43;;;4.68;;
47856;SDS011;33618;49.972;8.242;2023-05-20T12:35:48;5.30;;;4.90;;
47856;SDS011;33618;49.972;8.242;2023-05-20T12:38:15;5.63;;;5.10;;
47856;SDS011;33618;49.972;8.242;2023-05-20T12:40:42;5.43;;;4.95;;
47856;SDS011;33618;49.972;8.242;2023-05-20T12:43:09;8.70;;;4.82;;
47856;SDS011;33618;49.972;8.242;2023-05-20T12:45:36;5.60;;;5.10;;
47856;SDS011;33618;49.972;8.242;2023-05-20T12:48:03;5.63;;;5.13;;
47856;SDS011;33618;49.972;8.242;2023-05-20T12:50:31;5.60;;;4.95;;
47856;SDS011;33618;49.972;8.242;2023-05-20T12:52:58;5.70;;;5.20;;
47856;SDS011;33618;49.972;8.242;2023-05-20T12:55:25;5.25;;;4.85;;
47856;SDS011;33618;49.972;8.242;2023-05-20T12:57:53;10.38;;;5.40;;
47856;SDS011;33618;49.972;8.242;2023-05-20T13:00:20;4.97;;;4.57;;
47856;SDS011;33618;49.972;8.242;2023-05-20T13:02:47;5.22;;;4.72;;
47856;SDS011;33618;49.972;8.242;2023-05-20T13:05:14;4.90;;;4.60;;
47856;SDS011;33618;49.972;8.242;2023-05-20T13:07:41;5.43;;;4.93;;
47856;SDS011;33618;49.972;8.242;2023-05-20T13:10:08;4.90;;;4.50;;
47856;SDS011;33618;49.972;8.242;2023-05-20T13:12:36;5.53;;;5.03;;
47856;SDS011;33618;49.972;8.242;2023-05-20T13:15:03;5.03;;;4.53;;
47856;SDS011;33618;49.972;8.242;2023-05-20T13:17:31;5.53;;;5.03;;
47856;SDS011;33618;49.972;8.242;2023-05-20T13:19:57;5.10;;;4.70;;
47856;SDS011;33618;49.972;8.242;2023-05-20T13:22:24;5.22;;;4.82;;
47856;SDS011;33618;49.972;8.242;2023-05-20T13:24:51;5.47;;;5.00;;
47856;SDS011;33618;49.972;8.242;2023-05-20T13:27:18;5.63;;;5.13;;
47856;SDS011;33618;49.972;8.242;2023-05-20T13:29:45;9.27;;;5.25;;
47856;SDS011;33618;49.972;8.242;2023-05-20T13:32:12;6.05;;;5.45;;
47856;SDS011;33618;49.972;8.242;2023-05-20T13:34:38;5.40;;;5.00;;
47856;SDS011;33618;49.972;8.242;2023-05-20T13:37:06;5.35;;;4.95;;
47856;SDS011;33618;49.972;8.242;2023-05-20T13:39:32;7.50;;;5.32;;
47856;SDS011;33618;49.972;8.242;2023-05-20T13:41:59;5.80;;;5.30;;
47856;SDS011;33618;49.972;8.242;2023-05-20T13:44:26;6.72;;;5.60;;
47856;SDS011;33618;49.972;8.242;2023-05-20T13:46:55;6.10;;;5.50;;
47856;SDS011;33618;49.972;8.242;2023-05-20T13:49:22;8.30;;;5.53;;
47856;SDS011;33618;49.972;8.242;2023-05-20T13:51:50;6.05;;;5.45;;
47856;SDS011;33618;49.972;8.242;2023-05-20T13:54:17;6.40;;;5.72;;
47856;SDS011;33618;49.972;8.242;2023-05-20T13:56:45;6.15;;;5.60;;
47856;SDS011;33618;49.972;8.242;2023-05-20T13:59:12;6.30;;;5.10;;
47856;SDS011;33618;49.972;8.242;2023-05-20T14:01:39;6.22;;;5.20;;
47856;SDS011;33618;49.972;8.242;2023-05-20T14:04:10;6.30;;;5.25;;
47856;SDS011;33618;49.972;8.242;2023-05-20T14:06:38;5.78;;;5.28;;
47856;SDS011;33618;49.972;8.242;2023-05-20T14:09:05;6.03;;;5.15;;
47856;SDS011;33618;49.972;8.242;2023-05-20T14:11:34;5.82;;;5.28;;
47856;SDS011;33618;49.972;8.242;2023-05-20T14:14:02;6.93;;;5.57;;
47856;SDS011;33618;49.972;8.242;2023-05-20T14:16:29;5.65;;;5.18;;
47856;SDS011;33618;49.972;8.242;2023-05-20T14:18:58;5.95;;;5.32;;
47856;SDS011;33618;49.972;8.242;2023-05-20T14:21:25;5.50;;;5.10;;
47856;SDS011;33618;49.972;8.242;2023-05-20T14:23:51;5.90;;;5.40;;
47856;SDS011;33618;49.972;8.242;2023-05-20T14:26:18;6.05;;;5.55;;
47856;SDS011;33618;49.972;8.242;2023-05-20T14:28:46;6.20;;;5.70;;
47856;SDS011;33618;49.972;8.242;2023-05-20T14:31:13;6.57;;;6.03;;
47856;SDS011;33618;49.972;8.242;2023-05-20T14:33:40;7.28;;;5.30;;
47856;SDS011;33618;49.972;8.242;2023-05-20T14:36:07;7.15;;;5.35;;
47856;SDS011;33618;49.972;8.242;2023-05-20T14:38:34;7.65;;;5.28;;
47856;SDS011;33618;49.972;8.242;2023-05-20T14:41:00;6.20;;;5.70;;
47856;SDS011;33618;49.972;8.242;2023-05-20T14:43:27;6.93;;;6.13;;
47856;SDS011;33618;49.972;8.242;2023-05-20T14:45:54;5.70;;;5.28;;
47856;SDS011;33618;49.972;8.242;2023-05-20T14:48:21;6.47;;;5.85;;
47856;SDS011;33618;49.972;8.242;2023-05-20T14:50:48;6.30;;;5.80;;
47856;SDS011;33618;49.972;8.242;2023-05-20T14:53:15;5.75;;;5.30;;
47856;SDS011;33618;49.972;8.242;2023-05-20T14:55:42;5.45;;;5.05;;
47856;SDS011;33618;49.972;8.242;2023-05-20T14:58:09;6.85;;;5.70;;
47856;SDS011;33618;49.972;8.242;2023-05-20T15:00:37;5.88;;;5.28;;
47856;SDS011;33618;49.972;8.242;2023-05-20T15:03:04;5.97;;;5.55;;
47856;SDS011;33618;49.972;8.242;2023-05-20T15:05:31;5.90;;;5.40;;
47856;SDS011;33618;49.972;8.242;2023-05-20T15:07:58;7.65;;;5.57;;
47856;SDS011;33618;49.972;8.242;2023-05-20T15:10:25;5.72;;;5.22;;
47856;SDS011;33618;49.972;8.242;2023-05-20T15:12:52;5.63;;;5.13;;